createdAt,value
2018-12-26T00:03:31.006Z,4.50
2018-12-26T00:07:34.393Z,4.80
2018-12-26T00:11:36.811Z,4.80
2018-12-26T00:15:39.186Z,4.80
2018-12-26T00:19:41.666Z,4.50
2018-12-26T00:23:43.959Z,4.80
2018-12-26T00:27:46.295Z,4.40
2018-12-26T00:31:48.633Z,4.40
2018-12-26T00:35:50.985Z,4.60
2018-12-26T00:39:53.352Z,4.20
2018-12-26T00:43:55.890Z,4.30
2018-12-26T00:47:58.284Z,4.50
2018-12-26T00:52:00.614Z,4.40
2018-12-26T00:56:10.230Z,4.40
2018-12-26T01:00:05.849Z,4.20
2018-12-26T01:04:08.277Z,4.40
2018-12-26T01:08:10.625Z,3.90
2018-12-26T01:12:13.554Z,3.70
2018-12-26T01:16:16.133Z,4.10
2018-12-26T01:20:18.579Z,3.90
2018-12-26T01:24:20.879Z,3.80
2018-12-26T01:28:23.247Z,4.20
2018-12-26T01:32:27.253Z,4.30
2018-12-26T01:36:29.611Z,4.00
2018-12-26T01:40:32.252Z,3.90
2018-12-26T01:44:34.685Z,3.30
2018-12-26T01:48:36.979Z,3.30
2018-12-26T01:52:39.324Z,3.30
2018-12-26T01:56:41.697Z,3.40
2018-12-26T02:00:44.050Z,3.50
2018-12-26T02:04:46.408Z,3.90
2018-12-26T02:08:48.730Z,3.90
2018-12-26T02:12:51.116Z,3.80
2018-12-26T02:16:53.453Z,4.00
2018-12-26T02:20:55.899Z,3.80
2018-12-26T02:24:58.293Z,3.50
2018-12-26T02:29:00.645Z,3.40
2018-12-26T02:33:03.033Z,3.50
2018-12-26T02:37:05.379Z,3.50
2018-12-26T02:41:07.723Z,3.60
2018-12-26T02:45:10.095Z,3.10
2018-12-26T02:49:12.431Z,2.40
2018-12-26T02:53:14.824Z,3.40
2018-12-26T02:57:17.165Z,2.80
2018-12-26T03:01:19.533Z,2.70
2018-12-26T03:05:21.832Z,2.80
2018-12-26T03:09:24.192Z,3.10
2018-12-26T03:13:26.554Z,3.00
2018-12-26T03:17:28.859Z,3.70
2018-12-26T03:21:31.195Z,3.40
2018-12-26T03:25:33.550Z,3.30
2018-12-26T03:29:35.850Z,3.30
2018-12-26T03:33:38.182Z,3.00
2018-12-26T03:37:40.644Z,3.20
2018-12-26T03:41:43.031Z,3.30
2018-12-26T03:45:45.416Z,2.60
2018-12-26T03:49:47.797Z,2.60
2018-12-26T03:53:50.178Z,2.50
2018-12-26T03:57:52.596Z,1.10
2018-12-26T04:01:55.029Z,1.60
2018-12-26T04:05:57.385Z,2.20
2018-12-26T04:09:59.838Z,2.60
2018-12-26T04:14:02.164Z,2.20
2018-12-26T04:18:05.038Z,2.80
2018-12-26T04:22:07.512Z,3.20
2018-12-26T04:26:09.803Z,3.10
2018-12-26T04:30:12.157Z,3.10
2018-12-26T04:34:14.499Z,2.30
2018-12-26T04:38:16.828Z,2.30
2018-12-26T04:42:19.209Z,2.60
2018-12-26T04:46:21.561Z,2.80
2018-12-26T04:50:23.939Z,2.70
2018-12-26T04:54:26.263Z,2.20
2018-12-26T04:58:28.577Z,2.90
2018-12-26T05:02:30.957Z,2.80
2018-12-26T05:06:33.262Z,2.90
2018-12-26T05:10:35.575Z,3.00
2018-12-26T05:14:37.938Z,2.40
2018-12-26T05:18:40.271Z,2.60
2018-12-26T05:22:42.654Z,3.00
2018-12-26T05:26:45.071Z,2.80
2018-12-26T05:30:47.450Z,1.90
2018-12-26T05:34:49.872Z,1.50
2018-12-26T05:38:52.218Z,2.50
2018-12-26T05:42:54.541Z,2.30
2018-12-26T05:46:56.838Z,2.20
2018-12-26T05:50:59.204Z,2.20
2018-12-26T05:55:01.519Z,2.40
2018-12-26T05:59:03.881Z,2.30
2018-12-26T06:03:06.243Z,2.20
2018-12-26T06:07:08.651Z,2.00
2018-12-26T06:11:10.971Z,2.00
2018-12-26T06:15:13.320Z,1.40
2018-12-26T06:19:15.687Z,2.30
2018-12-26T06:23:17.961Z,2.60
2018-12-26T06:27:20.344Z,2.40
2018-12-26T06:31:22.703Z,2.50
2018-12-26T06:35:25.002Z,2.20
2018-12-26T06:39:27.411Z,1.90
2018-12-26T06:43:29.783Z,1.40
2018-12-26T06:47:32.177Z,1.20
2018-12-26T06:51:34.521Z,2.10
2018-12-26T06:55:36.908Z,2.30
2018-12-26T06:59:39.270Z,2.30
2018-12-26T07:03:41.610Z,1.90
2018-12-26T07:07:43.846Z,1.80
2018-12-26T07:11:46.247Z,1.10
2018-12-26T07:15:48.571Z,-0.40
2018-12-26T07:19:50.887Z,0.70
2018-12-26T07:23:53.206Z,1.40
2018-12-26T07:27:55.544Z,2.10
2018-12-26T07:31:57.885Z,2.40
2018-12-26T07:36:00.239Z,2.60
2018-12-26T07:40:02.585Z,2.70
2018-12-26T07:44:04.909Z,2.60
2018-12-26T07:48:07.228Z,2.60
2018-12-26T07:52:09.566Z,2.70
2018-12-26T07:56:11.911Z,3.00
2018-12-26T08:00:14.270Z,3.20
2018-12-26T08:04:16.653Z,3.10
2018-12-26T08:08:19.028Z,2.90
2018-12-26T08:12:21.395Z,3.30
2018-12-26T08:16:23.716Z,3.40
2018-12-26T08:20:26.146Z,3.60
2018-12-26T08:24:28.445Z,3.50
2018-12-26T08:28:30.815Z,3.60
2018-12-26T08:32:33.202Z,3.50
2018-12-26T08:36:35.638Z,3.60
2018-12-26T08:40:37.982Z,4.30
2018-12-26T08:44:40.295Z,4.40
2018-12-26T08:48:42.695Z,4.50
2018-12-26T08:52:45.017Z,4.60
2018-12-26T08:56:47.401Z,5.10
2018-12-26T09:00:49.774Z,4.00
2018-12-26T09:04:52.211Z,4.40
2018-12-26T09:08:54.555Z,5.00
2018-12-26T09:12:56.891Z,5.80
2018-12-26T09:16:59.230Z,6.40
2018-12-26T09:21:01.664Z,6.60
2018-12-26T09:25:04.115Z,6.00
2018-12-26T09:29:06.511Z,7.00
2018-12-26T09:33:08.866Z,7.20
2018-12-26T09:37:11.294Z,7.40
2018-12-26T09:41:13.673Z,7.30
2018-12-26T09:45:16.000Z,7.50
2018-12-26T09:49:18.373Z,7.30
2018-12-26T09:53:20.740Z,7.10
2018-12-26T09:57:23.110Z,7.00
2018-12-26T10:01:25.449Z,7.10
2018-12-26T10:05:27.835Z,7.20
2018-12-26T10:09:30.189Z,7.60
2018-12-26T10:13:32.554Z,7.70
2018-12-26T10:17:34.944Z,8.00
2018-12-26T10:21:37.330Z,8.30
2018-12-26T10:25:40.064Z,8.40
2018-12-26T10:29:42.458Z,9.00
2018-12-26T10:33:44.815Z,9.20
2018-12-26T10:37:47.258Z,9.20
2018-12-26T10:41:49.598Z,9.50
2018-12-26T10:45:51.954Z,9.60
2018-12-26T10:49:55.280Z,9.60
2018-12-26T10:53:57.557Z,9.60
2018-12-26T10:57:59.936Z,9.70
2018-12-26T11:02:02.284Z,9.80
2018-12-26T11:06:04.723Z,10.10
2018-12-26T11:10:07.052Z,9.80
2018-12-26T11:14:09.662Z,9.90
2018-12-26T11:18:12.019Z,8.70
2018-12-26T11:22:14.418Z,7.50
2018-12-26T11:26:16.839Z,6.30
2018-12-26T11:30:19.199Z,6.00
2018-12-26T11:34:22.178Z,5.30
2018-12-26T11:38:24.564Z,6.60
2018-12-26T11:42:26.903Z,6.60
2018-12-26T11:46:29.460Z,7.00
2018-12-26T11:50:31.869Z,7.60
2018-12-26T11:54:34.310Z,7.00
2018-12-26T11:58:36.667Z,7.20
2018-12-26T12:02:40.964Z,6.60
2018-12-26T12:06:43.373Z,6.60
2018-12-26T12:10:45.838Z,5.90
2018-12-26T12:14:48.252Z,8.40
2018-12-26T12:18:50.617Z,6.70
2018-12-26T12:22:54.449Z,8.90
2018-12-26T12:26:56.762Z,8.80
2018-12-26T12:30:59.258Z,9.40
2018-12-26T12:35:01.666Z,9.30
2018-12-26T12:39:06.090Z,9.40
2018-12-26T12:43:08.420Z,10.10
2018-12-26T12:47:10.814Z,9.60
2018-12-26T12:51:13.273Z,9.40
2018-12-26T12:55:15.655Z,9.10
2018-12-26T12:59:18.142Z,9.30
2018-12-26T13:03:20.507Z,9.30
2018-12-26T13:07:22.906Z,9.60
2018-12-26T13:11:25.262Z,8.80
2018-12-26T13:15:27.703Z,8.20
2018-12-26T13:19:31.817Z,8.10
2018-12-26T13:23:34.243Z,6.70
2018-12-26T13:27:36.668Z,7.50
2018-12-26T13:31:39.114Z,7.70
2018-12-26T13:35:41.453Z,8.40
2018-12-26T13:39:44.382Z,8.10
2018-12-26T13:43:46.814Z,8.40
2018-12-26T13:47:49.149Z,8.80
2018-12-26T13:51:51.463Z,9.30
2018-12-26T13:55:53.880Z,8.90
2018-12-26T14:00:02.223Z,8.70
2018-12-26T14:03:58.641Z,8.60
2018-12-26T14:08:01.051Z,8.60
2018-12-26T14:12:03.453Z,8.80
2018-12-26T14:16:05.773Z,9.00
2018-12-26T14:20:08.192Z,9.40
2018-12-26T14:24:10.521Z,9.70
2018-12-26T14:28:13.436Z,9.80
2018-12-26T14:32:15.800Z,9.60
2018-12-26T14:36:18.354Z,9.50
2018-12-26T14:40:20.842Z,9.60
2018-12-26T14:44:23.454Z,9.50
2018-12-26T14:48:25.851Z,9.20
2018-12-26T14:52:28.217Z,8.40
2018-12-26T14:56:30.622Z,7.80
2018-12-26T15:00:33.198Z,7.70
2018-12-26T15:04:37.107Z,7.20
2018-12-26T15:08:39.537Z,7.50
2018-12-26T15:12:42.152Z,7.70
2018-12-26T15:16:45.062Z,7.70
2018-12-26T15:20:47.427Z,7.70
2018-12-26T15:24:49.883Z,7.30
2018-12-26T15:28:52.766Z,7.40
2018-12-26T15:32:55.107Z,7.30
2018-12-26T15:36:57.531Z,7.00
2018-12-26T15:40:59.914Z,7.20
2018-12-26T15:45:02.315Z,7.60
2018-12-26T15:49:04.677Z,7.60
2018-12-26T15:53:07.181Z,7.70
2018-12-26T15:57:09.602Z,7.80
2018-12-26T16:01:11.998Z,6.00
2018-12-26T16:05:14.326Z,5.70
2018-12-26T16:09:16.745Z,6.20
2018-12-26T16:13:19.072Z,6.70
2018-12-26T16:17:21.451Z,7.00
2018-12-26T16:21:23.882Z,7.40
2018-12-26T16:25:26.241Z,7.70
2018-12-26T16:29:28.682Z,7.80
2018-12-26T16:33:31.136Z,8.20
2018-12-26T16:37:33.607Z,8.30
2018-12-26T16:41:35.955Z,8.30
2018-12-26T16:45:38.310Z,8.00
2018-12-26T16:49:40.669Z,7.20
2018-12-26T16:53:43.061Z,7.20
2018-12-26T16:57:45.396Z,7.40
2018-12-26T17:01:47.791Z,7.50
2018-12-26T17:05:50.185Z,7.50
2018-12-26T17:09:52.552Z,7.10
2018-12-26T17:13:54.940Z,7.30
2018-12-26T17:17:57.285Z,7.20
2018-12-26T17:21:59.661Z,7.10
2018-12-26T17:26:02.080Z,7.10
2018-12-26T17:30:04.974Z,7.20
2018-12-26T17:34:07.446Z,7.00
2018-12-26T17:38:09.835Z,7.10
2018-12-26T17:42:12.344Z,7.50
2018-12-26T17:46:14.785Z,7.30
2018-12-26T17:50:28.464Z,7.30
2018-12-26T17:54:38.275Z,7.00
2018-12-26T17:58:47.476Z,7.10
2018-12-26T18:02:49.859Z,7.20
2018-12-26T18:06:52.246Z,7.10
2018-12-26T18:10:54.671Z,7.30
2018-12-26T18:14:57.032Z,7.50
2018-12-26T18:18:59.369Z,7.60
2018-12-26T18:23:01.765Z,7.90
2018-12-26T18:27:04.257Z,7.90
2018-12-26T18:31:06.676Z,7.60
2018-12-26T18:35:09.682Z,7.40
2018-12-26T18:39:12.036Z,7.40
2018-12-26T18:43:14.419Z,7.40
2018-12-26T18:47:16.789Z,7.30
2018-12-26T18:51:19.231Z,7.30
2018-12-26T18:55:21.641Z,7.40
2018-12-26T18:59:24.069Z,7.10
2018-12-26T19:03:26.419Z,7.20
2018-12-26T19:07:28.784Z,7.10
2018-12-26T19:11:31.149Z,7.00
2018-12-26T19:15:33.535Z,7.00
2018-12-26T19:19:35.913Z,6.80
2018-12-26T19:23:38.274Z,6.90
2018-12-26T19:27:40.651Z,7.10
2018-12-26T19:31:43.778Z,7.10
2018-12-26T19:35:46.345Z,7.30
2018-12-26T19:39:48.788Z,7.50
2018-12-26T19:43:51.319Z,7.70
2018-12-26T19:47:53.990Z,7.70
2018-12-26T19:51:56.366Z,7.70
2018-12-26T19:55:58.770Z,7.80
2018-12-26T20:00:01.244Z,7.70
2018-12-26T20:04:03.739Z,7.70
2018-12-26T20:08:06.203Z,7.70
2018-12-26T20:12:09.435Z,7.70
2018-12-26T20:16:11.917Z,7.50
2018-12-26T20:20:14.317Z,7.30
2018-12-26T20:24:16.752Z,7.50
2018-12-26T20:28:19.720Z,7.50
2018-12-26T20:32:21.715Z,7.40
2018-12-26T20:36:24.310Z,7.20
2018-12-26T20:40:26.724Z,7.40
2018-12-26T20:44:29.254Z,7.20
2018-12-26T20:48:31.785Z,7.10
2018-12-26T20:52:34.149Z,7.00
2018-12-26T20:56:36.711Z,6.50
2018-12-26T21:00:39.209Z,6.40
2018-12-26T21:04:41.973Z,6.70
2018-12-26T21:08:44.583Z,6.80
2018-12-26T21:12:47.058Z,7.00
2018-12-26T21:16:55.003Z,6.90
2018-12-26T21:20:51.915Z,6.70
2018-12-26T21:24:54.319Z,6.50
2018-12-26T21:29:02.245Z,5.70
2018-12-26T21:33:12.173Z,6.80
2018-12-26T21:37:17.839Z,6.70
2018-12-26T21:41:33.773Z,6.90
2018-12-26T21:45:45.141Z,6.90
2018-12-26T21:49:55.121Z,7.00
2018-12-26T21:53:59.738Z,7.00
2018-12-26T21:58:03.478Z,7.00
2018-12-26T22:02:05.552Z,7.10
2018-12-26T22:06:07.898Z,7.10
2018-12-26T22:10:10.299Z,7.10
2018-12-26T22:14:12.777Z,7.30
2018-12-26T22:18:15.166Z,7.40
2018-12-26T22:22:17.544Z,7.40
2018-12-26T22:26:20.078Z,6.90
2018-12-26T22:30:22.572Z,6.60
2018-12-26T22:34:25.075Z,6.50
2018-12-26T22:38:27.801Z,6.50
2018-12-26T22:42:30.403Z,6.50
2018-12-26T22:46:32.761Z,6.20
2018-12-26T22:50:35.254Z,5.90
2018-12-26T22:54:37.964Z,5.80
2018-12-26T22:58:40.388Z,5.60
2018-12-26T23:02:42.942Z,5.80
2018-12-26T23:06:45.448Z,5.90
2018-12-26T23:10:47.938Z,5.90
2018-12-26T23:14:50.424Z,5.90
2018-12-26T23:18:52.804Z,5.90
2018-12-26T23:22:55.201Z,5.90
2018-12-26T23:26:57.527Z,6.00
2018-12-26T23:30:59.908Z,5.20
2018-12-26T23:35:02.397Z,5.70
2018-12-26T23:39:06.224Z,5.90
2018-12-26T23:43:08.591Z,5.90
2018-12-26T23:47:11.171Z,6.00
2018-12-26T23:51:13.886Z,5.90
2018-12-26T23:55:16.433Z,5.70
2018-12-26T23:59:18.863Z,5.50
